sensor_id;sensor_type;location;lat;lon;timestamp;P1;durP1;ratioP1;P2;durP2;ratioP2
6053;SDS011;3055;50.886;14.814;2024-02-14T00:02:05;19.60;;;13.97;;
6053;SDS011;3055;50.886;14.814;2024-02-14T00:04:32;20.90;;;14.40;;
6053;SDS011;3055;50.886;14.814;2024-02-14T00:06:59;20.33;;;12.57;;
6053;SDS011;3055;50.886;14.814;2024-02-14T00:09:26;15.80;;;12.40;;
6053;SDS011;3055;50.886;14.814;2024-02-14T00:11:53;16.53;;;12.83;;
6053;SDS011;3055;50.886;14.814;2024-02-14T00:14:20;15.57;;;11.97;;
6053;SDS011;3055;50.886;14.814;2024-02-14T00:16:49;14.33;;;11.20;;
6053;SDS011;3055;50.886;14.814;2024-02-14T00:19:16;14.67;;;11.60;;
6053;SDS011;3055;50.886;14.814;2024-02-14T00:21:43;15.17;;;11.07;;
6053;SDS011;3055;50.886;14.814;2024-02-14T00:24:10;14.47;;;10.40;;
6053;SDS011;3055;50.886;14.814;2024-02-14T00:26:37;14.87;;;10.87;;
6053;SDS011;3055;50.886;14.814;2024-02-14T00:29:04;12.63;;;9.67;;
6053;SDS011;3055;50.886;14.814;2024-02-14T00:31:31;11.17;;;9.90;;
6053;SDS011;3055;50.886;14.814;2024-02-14T00:34:00;12.23;;;10.00;;
6053;SDS011;3055;50.886;14.814;2024-02-14T00:36:27;15.57;;;11.23;;
6053;SDS011;3055;50.886;14.814;2024-02-14T00:38:54;10.80;;;9.23;;
6053;SDS011;3055;50.886;14.814;2024-02-14T00:41:21;11.63;;;10.17;;
6053;SDS011;3055;50.886;14.814;2024-02-14T00:43:48;13.93;;;10.80;;
6053;SDS011;3055;50.886;14.814;2024-02-14T00:46:16;13.90;;;10.30;;
6053;SDS011;3055;50.886;14.814;2024-02-14T00:48:43;17.10;;;13.70;;
6053;SDS011;3055;50.886;14.814;2024-02-14T00:51:12;20.53;;;14.87;;
6053;SDS011;3055;50.886;14.814;2024-02-14T00:53:39;19.97;;;14.20;;
6053;SDS011;3055;50.886;14.814;2024-02-14T00:56:06;21.17;;;14.70;;
6053;SDS011;3055;50.886;14.814;2024-02-14T00:58:34;21.23;;;16.47;;
6053;SDS011;3055;50.886;14.814;2024-02-14T01:01:01;25.07;;;17.10;;
6053;SDS011;3055;50.886;14.814;2024-02-14T01:03:28;24.03;;;17.53;;
6053;SDS011;3055;50.886;14.814;2024-02-14T01:05:55;25.97;;;17.87;;
6053;SDS011;3055;50.886;14.814;2024-02-14T01:08:23;24.37;;;16.73;;
6053;SDS011;3055;50.886;14.814;2024-02-14T01:10:50;23.23;;;16.93;;
6053;SDS011;3055;50.886;14.814;2024-02-14T01:13:17;26.77;;;17.70;;
6053;SDS011;3055;50.886;14.814;2024-02-14T01:15:45;24.40;;;16.87;;
6053;SDS011;3055;50.886;14.814;2024-02-14T01:18:12;22.90;;;16.60;;
6053;SDS011;3055;50.886;14.814;2024-02-14T01:20:39;24.03;;;17.13;;
6053;SDS011;3055;50.886;14.814;2024-02-14T01:23:06;21.83;;;15.73;;
6053;SDS011;3055;50.886;14.814;2024-02-14T01:25:34;21.80;;;15.87;;
6053;SDS011;3055;50.886;14.814;2024-02-14T01:28:01;22.80;;;15.80;;
6053;SDS011;3055;50.886;14.814;2024-02-14T01:30:33;22.20;;;15.60;;
6053;SDS011;3055;50.886;14.814;2024-02-14T01:33:01;22.70;;;16.53;;
6053;SDS011;3055;50.886;14.814;2024-02-14T01:35:29;22.93;;;14.87;;
6053;SDS011;3055;50.886;14.814;2024-02-14T01:37:56;20.40;;;15.60;;
6053;SDS011;3055;50.886;14.814;2024-02-14T01:40:23;22.90;;;15.00;;
6053;SDS011;3055;50.886;14.814;2024-02-14T01:42:51;22.23;;;15.93;;
6053;SDS011;3055;50.886;14.814;2024-02-14T01:45:18;21.60;;;15.70;;
6053;SDS011;3055;50.886;14.814;2024-02-14T01:47:45;19.63;;;14.23;;
6053;SDS011;3055;50.886;14.814;2024-02-14T01:50:13;23.47;;;15.10;;
6053;SDS011;3055;50.886;14.814;2024-02-14T01:52:40;23.10;;;15.27;;
6053;SDS011;3055;50.886;14.814;2024-02-14T01:55:09;21.37;;;14.30;;
6053;SDS011;3055;50.886;14.814;2024-02-14T01:57:39;20.87;;;13.80;;
6053;SDS011;3055;50.886;14.814;2024-02-14T02:00:08;21.83;;;14.80;;
6053;SDS011;3055;50.886;14.814;2024-02-14T02:02:43;17.97;;;13.13;;
6053;SDS011;3055;50.886;14.814;2024-02-14T02:05:11;17.73;;;13.70;;
6053;SDS011;3055;50.886;14.814;2024-02-14T02:07:38;16.60;;;13.20;;
6053;SDS011;3055;50.886;14.814;2024-02-14T02:10:08;17.93;;;12.80;;
6053;SDS011;3055;50.886;14.814;2024-02-14T02:12:36;19.27;;;13.93;;
6053;SDS011;3055;50.886;14.814;2024-02-14T02:15:04;19.67;;;14.43;;
6053;SDS011;3055;50.886;14.814;2024-02-14T02:17:33;18.80;;;13.13;;
6053;SDS011;3055;50.886;14.814;2024-02-14T02:20:00;17.40;;;13.30;;
6053;SDS011;3055;50.886;14.814;2024-02-14T02:22:28;15.63;;;12.67;;
6053;SDS011;3055;50.886;14.814;2024-02-14T02:24:58;17.97;;;13.70;;
6053;SDS011;3055;50.886;14.814;2024-02-14T02:27:25;15.93;;;13.27;;
6053;SDS011;3055;50.886;14.814;2024-02-14T02:29:52;18.27;;;13.43;;
6053;SDS011;3055;50.886;14.814;2024-02-14T02:32:19;18.87;;;13.70;;
6053;SDS011;3055;50.886;14.814;2024-02-14T02:34:46;19.27;;;13.33;;
6053;SDS011;3055;50.886;14.814;2024-02-14T02:37:13;18.27;;;13.63;;
6053;SDS011;3055;50.886;14.814;2024-02-14T02:39:41;19.90;;;13.80;;
6053;SDS011;3055;50.886;14.814;2024-02-14T02:42:10;18.10;;;12.63;;
6053;SDS011;3055;50.886;14.814;2024-02-14T02:44:38;17.33;;;12.43;;
6053;SDS011;3055;50.886;14.814;2024-02-14T02:47:05;18.30;;;12.17;;
6053;SDS011;3055;50.886;14.814;2024-02-14T02:49:33;15.67;;;11.60;;
6053;SDS011;3055;50.886;14.814;2024-02-14T02:52:02;17.37;;;12.07;;
6053;SDS011;3055;50.886;14.814;2024-02-14T02:54:29;16.70;;;11.67;;
6053;SDS011;3055;50.886;14.814;2024-02-14T02:56:56;17.87;;;11.83;;
6053;SDS011;3055;50.886;14.814;2024-02-14T02:59:25;14.37;;;11.33;;
6053;SDS011;3055;50.886;14.814;2024-02-14T03:01:54;14.17;;;11.30;;
6053;SDS011;3055;50.886;14.814;2024-02-14T03:04:23;12.47;;;10.10;;
6053;SDS011;3055;50.886;14.814;2024-02-14T03:06:50;16.10;;;11.57;;
6053;SDS011;3055;50.886;14.814;2024-02-14T03:09:17;13.73;;;10.43;;
6053;SDS011;3055;50.886;14.814;2024-02-14T03:11:45;15.83;;;10.87;;
6053;SDS011;3055;50.886;14.814;2024-02-14T03:14:13;12.53;;;10.87;;
6053;SDS011;3055;50.886;14.814;2024-02-14T03:16:41;14.97;;;10.80;;
6053;SDS011;3055;50.886;14.814;2024-02-14T03:19:08;17.97;;;11.53;;
6053;SDS011;3055;50.886;14.814;2024-02-14T03:21:35;13.63;;;10.33;;
6053;SDS011;3055;50.886;14.814;2024-02-14T03:24:02;14.73;;;10.37;;
6053;SDS011;3055;50.886;14.814;2024-02-14T03:26:30;15.00;;;10.57;;
6053;SDS011;3055;50.886;14.814;2024-02-14T03:28:58;13.83;;;10.27;;
6053;SDS011;3055;50.886;14.814;2024-02-14T03:31:26;11.43;;;9.33;;
6053;SDS011;3055;50.886;14.814;2024-02-14T03:33:54;15.03;;;10.37;;
6053;SDS011;3055;50.886;14.814;2024-02-14T03:36:21;11.87;;;10.40;;
6053;SDS011;3055;50.886;14.814;2024-02-14T03:38:49;13.43;;;10.80;;
6053;SDS011;3055;50.886;14.814;2024-02-14T03:41:16;14.47;;;11.20;;
6053;SDS011;3055;50.886;14.814;2024-02-14T03:43:43;12.67;;;10.17;;
6053;SDS011;3055;50.886;14.814;2024-02-14T03:46:10;13.43;;;9.73;;
6053;SDS011;3055;50.886;14.814;2024-02-14T03:48:38;14.97;;;10.23;;
6053;SDS011;3055;50.886;14.814;2024-02-14T03:51:07;13.90;;;10.03;;
6053;SDS011;3055;50.886;14.814;2024-02-14T03:53:34;12.13;;;9.50;;
6053;SDS011;3055;50.886;14.814;2024-02-14T03:56:02;12.23;;;9.67;;
6053;SDS011;3055;50.886;14.814;2024-02-14T03:58:30;12.70;;;9.90;;
6053;SDS011;3055;50.886;14.814;2024-02-14T04:00:58;12.10;;;9.33;;
6053;SDS011;3055;50.886;14.814;2024-02-14T04:03:27;13.20;;;9.93;;
6053;SDS011;3055;50.886;14.814;2024-02-14T04:05:54;15.00;;;9.93;;
6053;SDS011;3055;50.886;14.814;2024-02-14T04:08:23;13.53;;;9.60;;
6053;SDS011;3055;50.886;14.814;2024-02-14T04:10:50;19.07;;;9.47;;
6053;SDS011;3055;50.886;14.814;2024-02-14T04:13:19;10.63;;;8.97;;
6053;SDS011;3055;50.886;14.814;2024-02-14T04:15:46;11.63;;;9.53;;
6053;SDS011;3055;50.886;14.814;2024-02-14T04:18:13;12.10;;;9.30;;
6053;SDS011;3055;50.886;14.814;2024-02-14T04:20:43;10.73;;;8.00;;
6053;SDS011;3055;50.886;14.814;2024-02-14T04:23:10;10.37;;;8.30;;
6053;SDS011;3055;50.886;14.814;2024-02-14T04:25:39;9.47;;;7.90;;
6053;SDS011;3055;50.886;14.814;2024-02-14T04:28:06;10.47;;;9.20;;
6053;SDS011;3055;50.886;14.814;2024-02-14T04:30:33;11.37;;;8.13;;
6053;SDS011;3055;50.886;14.814;2024-02-14T04:33:01;10.83;;;8.10;;
6053;SDS011;3055;50.886;14.814;2024-02-14T04:35:29;10.90;;;7.73;;
6053;SDS011;3055;50.886;14.814;2024-02-14T04:37:56;12.13;;;8.73;;
6053;SDS011;3055;50.886;14.814;2024-02-14T04:40:23;10.57;;;8.17;;
6053;SDS011;3055;50.886;14.814;2024-02-14T04:42:52;11.77;;;9.60;;
6053;SDS011;3055;50.886;14.814;2024-02-14T04:45:19;11.00;;;9.20;;
6053;SDS011;3055;50.886;14.814;2024-02-14T04:47:46;16.37;;;9.53;;
6053;SDS011;3055;50.886;14.814;2024-02-14T04:50:14;12.73;;;8.67;;
6053;SDS011;3055;50.886;14.814;2024-02-14T04:52:41;13.37;;;8.93;;
6053;SDS011;3055;50.886;14.814;2024-02-14T04:55:08;10.63;;;8.20;;
6053;SDS011;3055;50.886;14.814;2024-02-14T04:57:35;12.37;;;8.70;;
6053;SDS011;3055;50.886;14.814;2024-02-14T05:00:05;10.77;;;8.20;;
6053;SDS011;3055;50.886;14.814;2024-02-14T05:02:34;10.97;;;8.37;;
6053;SDS011;3055;50.886;14.814;2024-02-14T05:05:01;12.23;;;8.83;;
6053;SDS011;3055;50.886;14.814;2024-02-14T05:07:29;11.87;;;8.73;;
6053;SDS011;3055;50.886;14.814;2024-02-14T05:09:56;12.67;;;8.40;;
6053;SDS011;3055;50.886;14.814;2024-02-14T05:12:23;12.03;;;8.63;;
6053;SDS011;3055;50.886;14.814;2024-02-14T05:14:50;12.57;;;8.60;;
6053;SDS011;3055;50.886;14.814;2024-02-14T05:17:18;11.63;;;8.73;;
6053;SDS011;3055;50.886;14.814;2024-02-14T05:19:45;10.83;;;9.00;;
6053;SDS011;3055;50.886;14.814;2024-02-14T05:22:12;11.80;;;8.83;;
6053;SDS011;3055;50.886;14.814;2024-02-14T05:24:39;10.57;;;8.57;;
6053;SDS011;3055;50.886;14.814;2024-02-14T05:27:06;12.07;;;9.77;;
6053;SDS011;3055;50.886;14.814;2024-02-14T05:29:33;12.03;;;8.93;;
6053;SDS011;3055;50.886;14.814;2024-02-14T05:32:00;10.10;;;8.83;;
6053;SDS011;3055;50.886;14.814;2024-02-14T05:34:29;12.83;;;9.17;;
6053;SDS011;3055;50.886;14.814;2024-02-14T05:36:56;10.30;;;8.80;;
6053;SDS011;3055;50.886;14.814;2024-02-14T05:39:23;12.70;;;9.37;;
6053;SDS011;3055;50.886;14.814;2024-02-14T05:41:50;13.00;;;9.73;;
6053;SDS011;3055;50.886;14.814;2024-02-14T05:44:19;10.50;;;8.93;;
6053;SDS011;3055;50.886;14.814;2024-02-14T05:46:47;12.40;;;9.30;;
6053;SDS011;3055;50.886;14.814;2024-02-14T05:49:14;11.50;;;9.60;;
6053;SDS011;3055;50.886;14.814;2024-02-14T05:51:43;11.63;;;9.60;;
6053;SDS011;3055;50.886;14.814;2024-02-14T05:54:10;12.87;;;9.60;;
6053;SDS011;3055;50.886;14.814;2024-02-14T05:56:37;16.93;;;9.37;;
6053;SDS011;3055;50.886;14.814;2024-02-14T05:59:04;11.47;;;9.50;;
6053;SDS011;3055;50.886;14.814;2024-02-14T06:01:31;13.10;;;9.33;;
6053;SDS011;3055;50.886;14.814;2024-02-14T06:03:58;12.93;;;10.23;;
6053;SDS011;3055;50.886;14.814;2024-02-14T06:06:25;13.37;;;10.23;;
6053;SDS011;3055;50.886;14.814;2024-02-14T06:08:54;15.80;;;10.17;;
6053;SDS011;3055;50.886;14.814;2024-02-14T06:11:22;11.97;;;9.77;;
6053;SDS011;3055;50.886;14.814;2024-02-14T06:13:49;12.20;;;9.47;;
6053;SDS011;3055;50.886;14.814;2024-02-14T06:16:16;12.53;;;9.50;;
6053;SDS011;3055;50.886;14.814;2024-02-14T06:18:44;14.20;;;9.73;;
6053;SDS011;3055;50.886;14.814;2024-02-14T06:21:11;11.60;;;9.07;;
6053;SDS011;3055;50.886;14.814;2024-02-14T06:23:38;11.50;;;9.03;;
6053;SDS011;3055;50.886;14.814;2024-02-14T06:26:13;14.87;;;9.37;;
6053;SDS011;3055;50.886;14.814;2024-02-14T06:28:40;12.37;;;10.27;;
6053;SDS011;3055;50.886;14.814;2024-02-14T06:31:07;11.10;;;8.77;;
6053;SDS011;3055;50.886;14.814;2024-02-14T06:33:33;11.67;;;9.23;;
6053;SDS011;3055;50.886;14.814;2024-02-14T06:36:00;13.17;;;9.23;;
6053;SDS011;3055;50.886;14.814;2024-02-14T06:38:27;13.23;;;8.50;;
6053;SDS011;3055;50.886;14.814;2024-02-14T06:40:54;13.87;;;8.77;;
6053;SDS011;3055;50.886;14.814;2024-02-14T06:43:23;12.43;;;8.67;;
6053;SDS011;3055;50.886;14.814;2024-02-14T06:45:50;13.23;;;9.30;;
6053;SDS011;3055;50.886;14.814;2024-02-14T06:48:17;12.97;;;8.60;;
6053;SDS011;3055;50.886;14.814;2024-02-14T06:50:48;11.57;;;9.13;;
6053;SDS011;3055;50.886;14.814;2024-02-14T06:53:15;11.27;;;9.10;;
6053;SDS011;3055;50.886;14.814;2024-02-14T06:55:43;14.37;;;10.50;;
6053;SDS011;3055;50.886;14.814;2024-02-14T06:58:11;13.50;;;9.80;;
6053;SDS011;3055;50.886;14.814;2024-02-14T07:00:39;13.13;;;10.60;;
6053;SDS011;3055;50.886;14.814;2024-02-14T07:03:06;13.60;;;9.53;;
6053;SDS011;3055;50.886;14.814;2024-02-14T07:05:33;12.33;;;9.27;;
6053;SDS011;3055;50.886;14.814;2024-02-14T07:08:00;11.60;;;8.73;;
6053;SDS011;3055;50.886;14.814;2024-02-14T07:10:28;11.40;;;9.10;;
6053;SDS011;3055;50.886;14.814;2024-02-14T07:12:55;11.37;;;10.13;;
6053;SDS011;3055;50.886;14.814;2024-02-14T07:15:22;12.97;;;9.53;;
6053;SDS011;3055;50.886;14.814;2024-02-14T07:17:54;14.17;;;10.17;;
6053;SDS011;3055;50.886;14.814;2024-02-14T07:20:23;13.97;;;10.70;;
6053;SDS011;3055;50.886;14.814;2024-02-14T07:22:51;14.23;;;10.50;;
6053;SDS011;3055;50.886;14.814;2024-02-14T07:25:19;13.43;;;11.03;;
6053;SDS011;3055;50.886;14.814;2024-02-14T07:27:46;15.30;;;11.07;;
6053;SDS011;3055;50.886;14.814;2024-02-14T07:30:14;13.07;;;10.50;;
6053;SDS011;3055;50.886;14.814;2024-02-14T07:32:42;15.40;;;11.00;;
6053;SDS011;3055;50.886;14.814;2024-02-14T07:35:11;16.77;;;10.77;;
6053;SDS011;3055;50.886;14.814;2024-02-14T07:37:38;12.63;;;10.87;;
6053;SDS011;3055;50.886;14.814;2024-02-14T07:40:13;14.03;;;11.13;;
6053;SDS011;3055;50.886;14.814;2024-02-14T07:42:40;16.57;;;11.33;;
6053;SDS011;3055;50.886;14.814;2024-02-14T07:45:08;15.43;;;12.00;;
6053;SDS011;3055;50.886;14.814;2024-02-14T07:47:35;15.47;;;11.13;;
6053;SDS011;3055;50.886;14.814;2024-02-14T07:50:03;15.63;;;11.37;;
6053;SDS011;3055;50.886;14.814;2024-02-14T07:52:32;15.90;;;11.57;;
6053;SDS011;3055;50.886;14.814;2024-02-14T07:54:59;16.67;;;11.13;;
6053;SDS011;3055;50.886;14.814;2024-02-14T07:57:26;15.03;;;11.23;;
6053;SDS011;3055;50.886;14.814;2024-02-14T07:59:53;15.53;;;11.10;;
6053;SDS011;3055;50.886;14.814;2024-02-14T08:02:20;14.93;;;11.33;;
6053;SDS011;3055;50.886;14.814;2024-02-14T08:04:47;17.37;;;11.20;;
6053;SDS011;3055;50.886;14.814;2024-02-14T08:07:14;15.73;;;10.90;;
6053;SDS011;3055;50.886;14.814;2024-02-14T08:09:42;14.27;;;10.40;;
6053;SDS011;3055;50.886;14.814;2024-02-14T08:12:09;16.20;;;11.23;;
6053;SDS011;3055;50.886;14.814;2024-02-14T08:14:36;14.43;;;10.60;;
6053;SDS011;3055;50.886;14.814;2024-02-14T08:17:04;16.53;;;11.87;;
6053;SDS011;3055;50.886;14.814;2024-02-14T08:19:31;16.17;;;11.80;;
6053;SDS011;3055;50.886;14.814;2024-02-14T08:21:58;14.83;;;10.87;;
6053;SDS011;3055;50.886;14.814;2024-02-14T08:24:25;16.60;;;12.13;;
6053;SDS011;3055;50.886;14.814;2024-02-14T08:26:54;14.07;;;10.80;;
6053;SDS011;3055;50.886;14.814;2024-02-14T08:29:21;14.17;;;10.93;;
6053;SDS011;3055;50.886;14.814;2024-02-14T08:31:48;13.43;;;10.93;;
6053;SDS011;3055;50.886;14.814;2024-02-14T08:34:15;14.57;;;10.50;;
6053;SDS011;3055;50.886;14.814;2024-02-14T08:36:42;16.53;;;11.00;;
6053;SDS011;3055;50.886;14.814;2024-02-14T08:39:10;13.23;;;9.63;;
6053;SDS011;3055;50.886;14.814;2024-02-14T08:41:37;12.67;;;10.40;;
6053;SDS011;3055;50.886;14.814;2024-02-14T08:44:09;11.40;;;9.63;;
6053;SDS011;3055;50.886;14.814;2024-02-14T08:46:36;10.67;;;9.43;;
6053;SDS011;3055;50.886;14.814;2024-02-14T08:49:04;12.60;;;9.83;;
6053;SDS011;3055;50.886;14.814;2024-02-14T08:51:33;10.90;;;9.27;;
6053;SDS011;3055;50.886;14.814;2024-02-14T08:54:01;11.20;;;8.80;;
6053;SDS011;3055;50.886;14.814;2024-02-14T08:56:31;10.17;;;8.40;;
6053;SDS011;3055;50.886;14.814;2024-02-14T08:58:59;12.03;;;9.00;;
6053;SDS011;3055;50.886;14.814;2024-02-14T09:01:27;12.10;;;8.50;;
6053;SDS011;3055;50.886;14.814;2024-02-14T09:03:54;11.80;;;8.93;;
6053;SDS011;3055;50.886;14.814;2024-02-14T09:06:21;11.37;;;8.20;;
6053;SDS011;3055;50.886;14.814;2024-02-14T09:08:49;9.97;;;7.97;;
6053;SDS011;3055;50.886;14.814;2024-02-14T09:11:16;12.23;;;8.17;;
6053;SDS011;3055;50.886;14.814;2024-02-14T09:13:44;10.60;;;8.20;;
6053;SDS011;3055;50.886;14.814;2024-02-14T09:16:12;12.77;;;8.43;;
6053;SDS011;3055;50.886;14.814;2024-02-14T09:18:42;11.10;;;9.53;;
6053;SDS011;3055;50.886;14.814;2024-02-14T09:21:11;10.83;;;8.10;;
6053;SDS011;3055;50.886;14.814;2024-02-14T09:23:40;9.40;;;8.23;;
6053;SDS011;3055;50.886;14.814;2024-02-14T09:26:07;10.20;;;8.00;;
6053;SDS011;3055;50.886;14.814;2024-02-14T09:28:35;11.00;;;8.00;;
6053;SDS011;3055;50.886;14.814;2024-02-14T09:31:02;11.67;;;8.20;;
6053;SDS011;3055;50.886;14.814;2024-02-14T09:33:30;9.73;;;8.03;;
6053;SDS011;3055;50.886;14.814;2024-02-14T09:35:58;12.07;;;8.83;;
6053;SDS011;3055;50.886;14.814;2024-02-14T09:38:25;12.63;;;9.60;;
6053;SDS011;3055;50.886;14.814;2024-02-14T09:40:53;12.17;;;9.37;;
6053;SDS011;3055;50.886;14.814;2024-02-14T09:43:24;13.57;;;9.10;;
6053;SDS011;3055;50.886;14.814;2024-02-14T09:45:58;11.87;;;9.77;;
6053;SDS011;3055;50.886;14.814;2024-02-14T09:48:25;14.43;;;9.10;;
6053;SDS011;3055;50.886;14.814;2024-02-14T09:50:53;15.43;;;9.37;;
6053;SDS011;3055;50.886;14.814;2024-02-14T09:53:23;14.77;;;9.80;;
6053;SDS011;3055;50.886;14.814;2024-02-14T09:55:50;10.27;;;7.97;;
6053;SDS011;3055;50.886;14.814;2024-02-14T09:58:17;10.20;;;8.13;;
6053;SDS011;3055;50.886;14.814;2024-02-14T10:00:45;9.43;;;7.93;;
6053;SDS011;3055;50.886;14.814;2024-02-14T10:03:12;12.70;;;8.30;;
6053;SDS011;3055;50.886;14.814;2024-02-14T10:05:41;15.03;;;8.73;;
6053;SDS011;3055;50.886;14.814;2024-02-14T10:08:08;10.40;;;8.13;;
6053;SDS011;3055;50.886;14.814;2024-02-14T10:10:38;9.40;;;8.20;;
6053;SDS011;3055;50.886;14.814;2024-02-14T10:13:05;7.93;;;6.80;;
6053;SDS011;3055;50.886;14.814;2024-02-14T10:15:32;12.97;;;8.27;;
6053;SDS011;3055;50.886;14.814;2024-02-14T10:18:00;9.23;;;8.27;;
6053;SDS011;3055;50.886;14.814;2024-02-14T10:20:28;10.00;;;8.20;;
6053;SDS011;3055;50.886;14.814;2024-02-14T10:23:01;15.63;;;8.60;;
6053;SDS011;3055;50.886;14.814;2024-02-14T10:25:29;12.97;;;8.27;;
6053;SDS011;3055;50.886;14.814;2024-02-14T10:28:03;9.80;;;8.07;;
6053;SDS011;3055;50.886;14.814;2024-02-14T10:30:33;10.97;;;7.67;;
6053;SDS011;3055;50.886;14.814;2024-02-14T10:33:05;10.73;;;8.70;;
6053;SDS011;3055;50.886;14.814;2024-02-14T10:35:33;9.83;;;8.27;;
6053;SDS011;3055;50.886;14.814;2024-02-14T10:38:02;10.47;;;8.73;;
6053;SDS011;3055;50.886;14.814;2024-02-14T10:40:31;10.57;;;8.20;;
6053;SDS011;3055;50.886;14.814;2024-02-14T10:43:00;10.17;;;8.43;;
6053;SDS011;3055;50.886;14.814;2024-02-14T10:45:28;13.83;;;11.00;;
6053;SDS011;3055;50.886;14.814;2024-02-14T10:47:55;13.43;;;8.20;;
6053;SDS011;3055;50.886;14.814;2024-02-14T10:50:24;10.13;;;8.03;;
6053;SDS011;3055;50.886;14.814;2024-02-14T10:52:56;10.20;;;7.10;;
6053;SDS011;3055;50.886;14.814;2024-02-14T10:55:24;19.10;;;13.77;;
6053;SDS011;3055;50.886;14.814;2024-02-14T10:57:55;12.33;;;10.53;;
6053;SDS011;3055;50.886;14.814;2024-02-14T11:00:25;27.47;;;21.03;;
6053;SDS011;3055;50.886;14.814;2024-02-14T11:02:53;11.80;;;8.70;;
6053;SDS011;3055;50.886;14.814;2024-02-14T11:05:20;14.90;;;12.47;;
6053;SDS011;3055;50.886;14.814;2024-02-14T11:07:49;11.90;;;9.03;;
6053;SDS011;3055;50.886;14.814;2024-02-14T11:10:18;10.90;;;8.13;;
6053;SDS011;3055;50.886;14.814;2024-02-14T11:12:46;10.40;;;7.70;;
6053;SDS011;3055;50.886;14.814;2024-02-14T11:15:16;14.43;;;9.63;;
6053;SDS011;3055;50.886;14.814;2024-02-14T11:17:45;11.97;;;7.60;;
6053;SDS011;3055;50.886;14.814;2024-02-14T11:20:17;9.90;;;7.50;;
6053;SDS011;3055;50.886;14.814;2024-02-14T11:22:54;8.30;;;7.30;;
6053;SDS011;3055;50.886;14.814;2024-02-14T11:25:23;12.80;;;7.90;;
6053;SDS011;3055;50.886;14.814;2024-02-14T11:27:56;10.60;;;7.93;;
6053;SDS011;3055;50.886;14.814;2024-02-14T11:30:30;9.60;;;8.07;;
6053;SDS011;3055;50.886;14.814;2024-02-14T11:33:18;13.27;;;7.40;;
6053;SDS011;3055;50.886;14.814;2024-02-14T11:35:47;10.47;;;7.47;;
6053;SDS011;3055;50.886;14.814;2024-02-14T11:38:16;11.70;;;8.67;;
6053;SDS011;3055;50.886;14.814;2024-02-14T11:40:43;11.13;;;8.13;;
6053;SDS011;3055;50.886;14.814;2024-02-14T11:43:11;10.03;;;8.37;;
6053;SDS011;3055;50.886;14.814;2024-02-14T11:45:40;11.33;;;8.27;;
6053;SDS011;3055;50.886;14.814;2024-02-14T11:48:08;12.57;;;8.40;;
6053;SDS011;3055;50.886;14.814;2024-02-14T11:50:37;9.80;;;8.67;;
6053;SDS011;3055;50.886;14.814;2024-02-14T11:53:06;10.17;;;8.00;;
6053;SDS011;3055;50.886;14.814;2024-02-14T11:55:35;11.43;;;8.37;;
6053;SDS011;3055;50.886;14.814;2024-02-14T11:58:06;11.80;;;8.60;;
6053;SDS011;3055;50.886;14.814;2024-02-14T12:00:35;10.60;;;8.57;;
6053;SDS011;3055;50.886;14.814;2024-02-14T12:03:06;13.27;;;8.63;;
6053;SDS011;3055;50.886;14.814;2024-02-14T12:05:34;10.83;;;8.50;;
6053;SDS011;3055;50.886;14.814;2024-02-14T12:08:04;12.33;;;8.70;;
6053;SDS011;3055;50.886;14.814;2024-02-14T12:10:33;13.33;;;8.57;;
6053;SDS011;3055;50.886;14.814;2024-02-14T12:13:04;9.53;;;8.53;;
6053;SDS011;3055;50.886;14.814;2024-02-14T12:15:37;11.97;;;8.90;;
6053;SDS011;3055;50.886;14.814;2024-02-14T12:18:05;12.73;;;7.87;;
6053;SDS011;3055;50.886;14.814;2024-02-14T12:20:32;12.80;;;7.93;;
6053;SDS011;3055;50.886;14.814;2024-02-14T12:22:59;11.40;;;7.90;;
6053;SDS011;3055;50.886;14.814;2024-02-14T12:25:27;10.17;;;7.67;;
6053;SDS011;3055;50.886;14.814;2024-02-14T12:27:56;14.03;;;8.50;;
6053;SDS011;3055;50.886;14.814;2024-02-14T12:30:23;10.90;;;8.37;;
6053;SDS011;3055;50.886;14.814;2024-02-14T12:33:10;10.97;;;8.73;;
6053;SDS011;3055;50.886;14.814;2024-02-14T12:35:39;13.97;;;9.23;;
6053;SDS011;3055;50.886;14.814;2024-02-14T12:38:09;11.37;;;8.07;;
6053;SDS011;3055;50.886;14.814;2024-02-14T12:40:37;9.43;;;7.33;;
6053;SDS011;3055;50.886;14.814;2024-02-14T12:43:06;11.17;;;8.27;;
6053;SDS011;3055;50.886;14.814;2024-02-14T12:45:33;12.47;;;8.37;;
6053;SDS011;3055;50.886;14.814;2024-02-14T12:48:01;10.17;;;8.50;;
6053;SDS011;3055;50.886;14.814;2024-02-14T12:50:29;12.60;;;8.63;;
6053;SDS011;3055;50.886;14.814;2024-02-14T12:52:56;9.60;;;7.87;;
6053;SDS011;3055;50.886;14.814;2024-02-14T12:55:24;10.80;;;7.13;;
6053;SDS011;3055;50.886;14.814;2024-02-14T12:57:55;11.13;;;8.30;;
6053;SDS011;3055;50.886;14.814;2024-02-14T13:00:22;11.93;;;8.33;;
6053;SDS011;3055;50.886;14.814;2024-02-14T13:02:49;9.27;;;7.90;;
6053;SDS011;3055;50.886;14.814;2024-02-14T13:05:17;11.03;;;8.23;;
6053;SDS011;3055;50.886;14.814;2024-02-14T13:07:44;13.10;;;8.97;;
6053;SDS011;3055;50.886;14.814;2024-02-14T13:10:12;10.03;;;7.63;;
6053;SDS011;3055;50.886;14.814;2024-02-14T13:12:39;10.10;;;7.47;;
6053;SDS011;3055;50.886;14.814;2024-02-14T13:15:10;13.53;;;8.23;;
6053;SDS011;3055;50.886;14.814;2024-02-14T13:17:37;10.07;;;7.43;;
6053;SDS011;3055;50.886;14.814;2024-02-14T13:20:05;9.27;;;6.97;;
6053;SDS011;3055;50.886;14.814;2024-02-14T13:22:33;11.00;;;7.80;;
6053;SDS011;3055;50.886;14.814;2024-02-14T13:25:00;8.13;;;7.30;;
6053;SDS011;3055;50.886;14.814;2024-02-14T13:27:27;9.27;;;7.70;;
6053;SDS011;3055;50.886;14.814;2024-02-14T13:29:55;12.77;;;7.37;;
6053;SDS011;3055;50.886;14.814;2024-02-14T13:32:23;10.80;;;7.90;;
6053;SDS011;3055;50.886;14.814;2024-02-14T13:34:50;8.73;;;7.30;;
6053;SDS011;3055;50.886;14.814;2024-02-14T13:37:17;8.17;;;7.27;;
6053;SDS011;3055;50.886;14.814;2024-02-14T13:39:46;12.03;;;7.20;;
6053;SDS011;3055;50.886;14.814;2024-02-14T13:42:14;11.20;;;7.63;;
6053;SDS011;3055;50.886;14.814;2024-02-14T13:44:41;10.67;;;7.27;;
6053;SDS011;3055;50.886;14.814;2024-02-14T13:47:08;7.87;;;7.00;;
6053;SDS011;3055;50.886;14.814;2024-02-14T13:49:36;9.97;;;7.40;;
6053;SDS011;3055;50.886;14.814;2024-02-14T13:52:04;10.80;;;8.40;;
6053;SDS011;3055;50.886;14.814;2024-02-14T13:54:31;8.87;;;7.43;;
6053;SDS011;3055;50.886;14.814;2024-02-14T13:56:58;9.30;;;7.23;;
6053;SDS011;3055;50.886;14.814;2024-02-14T13:59:25;9.13;;;7.13;;
6053;SDS011;3055;50.886;14.814;2024-02-14T14:01:52;8.00;;;6.87;;
6053;SDS011;3055;50.886;14.814;2024-02-14T14:04:19;10.27;;;6.87;;
6053;SDS011;3055;50.886;14.814;2024-02-14T14:06:48;11.60;;;7.20;;
6053;SDS011;3055;50.886;14.814;2024-02-14T14:09:15;7.43;;;6.67;;
6053;SDS011;3055;50.886;14.814;2024-02-14T14:11:43;8.33;;;7.00;;
6053;SDS011;3055;50.886;14.814;2024-02-14T14:14:11;10.77;;;7.23;;
6053;SDS011;3055;50.886;14.814;2024-02-14T14:16:43;15.63;;;7.67;;
6053;SDS011;3055;50.886;14.814;2024-02-14T14:19:10;9.33;;;7.23;;
6053;SDS011;3055;50.886;14.814;2024-02-14T14:21:37;9.47;;;7.00;;
6053;SDS011;3055;50.886;14.814;2024-02-14T14:24:05;10.93;;;7.57;;
6053;SDS011;3055;50.886;14.814;2024-02-14T14:26:33;10.63;;;7.57;;
6053;SDS011;3055;50.886;14.814;2024-02-14T14:29:00;11.27;;;7.17;;
6053;SDS011;3055;50.886;14.814;2024-02-14T14:31:27;9.90;;;6.67;;
6053;SDS011;3055;50.886;14.814;2024-02-14T14:33:56;10.13;;;6.70;;
6053;SDS011;3055;50.886;14.814;2024-02-14T14:36:23;9.07;;;7.33;;
6053;SDS011;3055;50.886;14.814;2024-02-14T14:38:50;9.70;;;7.03;;
6053;SDS011;3055;50.886;14.814;2024-02-14T14:41:20;10.10;;;7.93;;
6053;SDS011;3055;50.886;14.814;2024-02-14T14:43:47;10.40;;;7.43;;
6053;SDS011;3055;50.886;14.814;2024-02-14T14:46:15;8.53;;;7.10;;
6053;SDS011;3055;50.886;14.814;2024-02-14T14:48:42;8.57;;;6.67;;